sensor_id;sensor_type;location;lat;lon;timestamp;pressure;altitude;pressure_sealevel;temperature;humidity
12172;BME280;6149;52.418;13.668;2023-07-16T00:00:53;100254.72;;;20.95;100.00
12172;BME280;6149;52.418;13.668;2023-07-16T00:03:19;100258.25;;;20.95;100.00
12172;BME280;6149;52.418;13.668;2023-07-16T00:05:49;100261.25;;;20.92;100.00
12172;BME280;6149;52.418;13.668;2023-07-16T00:08:16;100263.41;;;20.89;100.00
12172;BME280;6149;52.418;13.668;2023-07-16T00:10:44;100276.00;;;20.88;100.00
12172;BME280;6149;52.418;13.668;2023-07-16T00:13:10;100279.38;;;20.90;100.00
12172;BME280;6149;52.418;13.668;2023-07-16T00:15:37;100282.22;;;20.89;100.00
12172;BME280;6149;52.418;13.668;2023-07-16T00:18:04;100291.13;;;20.89;100.00
12172;BME280;6149;52.418;13.668;2023-07-16T00:20:31;100290.28;;;20.89;100.00
12172;BME280;6149;52.418;13.668;2023-07-16T00:22:58;100310.41;;;20.85;100.00
12172;BME280;6149;52.418;13.668;2023-07-16T00:25:24;100319.94;;;20.79;100.00
12172;BME280;6149;52.418;13.668;2023-07-16T00:27:52;100317.56;;;20.76;100.00
12172;BME280;6149;52.418;13.668;2023-07-16T00:30:19;100316.72;;;20.76;100.00
12172;BME280;6149;52.418;13.668;2023-07-16T00:32:45;100327.47;;;20.76;100.00
12172;BME280;6149;52.418;13.668;2023-07-16T00:35:12;100331.16;;;20.75;100.00
12172;BME280;6149;52.418;13.668;2023-07-16T00:37:38;100336.69;;;20.73;100.00
12172;BME280;6149;52.418;13.668;2023-07-16T00:40:06;100348.75;;;20.69;100.00
12172;BME280;6149;52.418;13.668;2023-07-16T00:42:34;100356.94;;;20.67;100.00
12172;BME280;6149;52.418;13.668;2023-07-16T00:45:02;100355.56;;;20.63;100.00
12172;BME280;6149;52.418;13.668;2023-07-16T00:47:35;100359.41;;;20.61;100.00
12172;BME280;6149;52.418;13.668;2023-07-16T00:50:01;100375.66;;;20.59;100.00
12172;BME280;6149;52.418;13.668;2023-07-16T00:52:29;100373.44;;;20.55;100.00
12172;BME280;6149;52.418;13.668;2023-07-16T00:54:57;100382.63;;;20.52;100.00
12172;BME280;6149;52.418;13.668;2023-07-16T00:57:24;100391.69;;;20.51;100.00
12172;BME280;6149;52.418;13.668;2023-07-16T00:59:51;100404.28;;;20.51;100.00
12172;BME280;6149;52.418;13.668;2023-07-16T01:02:19;100428.47;;;20.51;100.00
12172;BME280;6149;52.418;13.668;2023-07-16T01:04:45;100448.69;;;20.45;100.00
12172;BME280;6149;52.418;13.668;2023-07-16T01:07:13;100467.66;;;20.44;100.00
12172;BME280;6149;52.418;13.668;2023-07-16T01:09:42;100486.84;;;20.49;100.00
12172;BME280;6149;52.418;13.668;2023-07-16T01:12:09;100515.72;;;20.47;100.00
12172;BME280;6149;52.418;13.668;2023-07-16T01:14:38;100520.09;;;20.48;100.00
12172;BME280;6149;52.418;13.668;2023-07-16T01:17:06;100539.03;;;20.46;100.00
12172;BME280;6149;52.418;13.668;2023-07-16T01:19:34;100566.75;;;20.47;100.00
12172;BME280;6149;52.418;13.668;2023-07-16T01:22:15;100599.56;;;20.50;100.00
12172;BME280;6149;52.418;13.668;2023-07-16T01:25:29;100592.03;;;20.54;100.00
12172;BME280;6149;52.418;13.668;2023-07-16T01:28:16;100591.78;;;20.47;100.00
12172;BME280;6149;52.418;13.668;2023-07-16T01:30:55;100579.34;;;20.46;100.00
12172;BME280;6149;52.418;13.668;2023-07-16T01:33:25;100575.94;;;20.44;100.00
12172;BME280;6149;52.418;13.668;2023-07-16T01:35:52;100559.69;;;20.46;100.00
12172;BME280;6149;52.418;13.668;2023-07-16T01:38:19;100564.63;;;20.50;100.00
12172;BME280;6149;52.418;13.668;2023-07-16T01:40:46;100558.66;;;20.56;100.00
12172;BME280;6149;52.418;13.668;2023-07-16T01:43:13;100557.81;;;20.56;100.00
12172;BME280;6149;52.418;13.668;2023-07-16T01:45:39;100561.47;;;20.64;100.00
12172;BME280;6149;52.418;13.668;2023-07-16T01:48:14;100572.78;;;20.68;100.00
12172;BME280;6149;52.418;13.668;2023-07-16T01:50:54;100579.56;;;20.72;100.00
12172;BME280;6149;52.418;13.668;2023-07-16T01:53:21;100589.47;;;20.72;100.00
12172;BME280;6149;52.418;13.668;2023-07-16T01:55:47;100589.47;;;20.72;100.00
12172;BME280;6149;52.418;13.668;2023-07-16T01:58:14;100585.78;;;20.73;100.00
12172;BME280;6149;52.418;13.668;2023-07-16T02:00:41;100594.69;;;20.73;100.00
12172;BME280;6149;52.418;13.668;2023-07-16T02:03:09;100586.22;;;20.68;100.00
12172;BME280;6149;52.418;13.668;2023-07-16T02:05:35;100568.25;;;20.68;100.00
12172;BME280;6149;52.418;13.668;2023-07-16T02:08:02;100570.94;;;20.68;100.00
12172;BME280;6149;52.418;13.668;2023-07-16T02:10:29;100568.41;;;20.67;100.00
12172;BME280;6149;52.418;13.668;2023-07-16T02:12:56;100557.34;;;20.70;100.00
12172;BME280;6149;52.418;13.668;2023-07-16T02:15:22;100579.44;;;20.64;100.00
12172;BME280;6149;52.418;13.668;2023-07-16T02:17:49;100581.53;;;20.70;100.00
12172;BME280;6149;52.418;13.668;2023-07-16T02:20:17;100584.81;;;20.64;100.00
12172;BME280;6149;52.418;13.668;2023-07-16T02:22:44;100593.88;;;20.63;100.00
12172;BME280;6149;52.418;13.668;2023-07-16T02:25:11;100603.34;;;20.67;100.00
12172;BME280;6149;52.418;13.668;2023-07-16T02:27:37;100601.34;;;20.69;100.00
12172;BME280;6149;52.418;13.668;2023-07-16T02:30:05;100606.28;;;20.74;100.00
12172;BME280;6149;52.418;13.668;2023-07-16T02:32:32;100619.47;;;20.67;100.00
12172;BME280;6149;52.418;13.668;2023-07-16T02:35:00;100643.22;;;20.62;100.00
12172;BME280;6149;52.418;13.668;2023-07-16T02:37:28;100637.28;;;20.58;100.00
12172;BME280;6149;52.418;13.668;2023-07-16T02:39:55;100642.09;;;20.55;100.00
12172;BME280;6149;52.418;13.668;2023-07-16T02:42:21;100637.44;;;20.47;100.00
12172;BME280;6149;52.418;13.668;2023-07-16T02:44:49;100627.00;;;20.34;100.00
12172;BME280;6149;52.418;13.668;2023-07-16T02:47:15;100614.00;;;20.30;100.00
12172;BME280;6149;52.418;13.668;2023-07-16T02:49:42;100616.97;;;20.27;100.00
12172;BME280;6149;52.418;13.668;2023-07-16T02:52:09;100636.91;;;20.24;100.00
12172;BME280;6149;52.418;13.668;2023-07-16T02:54:37;100649.75;;;20.21;100.00
12172;BME280;6149;52.418;13.668;2023-07-16T02:57:05;100652.00;;;20.16;100.00
12172;BME280;6149;52.418;13.668;2023-07-16T02:59:32;100648.91;;;20.11;100.00
12172;BME280;6149;52.418;13.668;2023-07-16T03:01:58;100650.88;;;20.09;100.00
12172;BME280;6149;52.418;13.668;2023-07-16T03:04:25;100640.03;;;20.00;100.00
12172;BME280;6149;52.418;13.668;2023-07-16T03:06:51;100649.06;;;19.99;100.00
12172;BME280;6149;52.418;13.668;2023-07-16T03:09:18;100649.34;;;19.96;100.00
12172;BME280;6149;52.418;13.668;2023-07-16T03:11:46;100636.22;;;19.93;100.00
12172;BME280;6149;52.418;13.668;2023-07-16T03:14:12;100631.41;;;19.97;100.00
12172;BME280;6149;52.418;13.668;2023-07-16T03:16:39;100628.72;;;19.97;100.00
12172;BME280;6149;52.418;13.668;2023-07-16T03:19:06;100617.97;;;19.97;100.00
12172;BME280;6149;52.418;13.668;2023-07-16T03:21:33;100609.94;;;19.97;100.00
12172;BME280;6149;52.418;13.668;2023-07-16T03:23:59;100592.94;;;20.06;100.00
12172;BME280;6149;52.418;13.668;2023-07-16T03:26:26;100579.13;;;20.01;100.00
12172;BME280;6149;52.418;13.668;2023-07-16T03:28:54;100577.44;;;20.00;100.00
12172;BME280;6149;52.418;13.668;2023-07-16T03:31:21;100562.31;;;19.99;100.00
12172;BME280;6149;52.418;13.668;2023-07-16T03:33:47;100575.75;;;19.99;100.00
12172;BME280;6149;52.418;13.668;2023-07-16T03:36:14;100584.94;;;19.96;100.00
12172;BME280;6149;52.418;13.668;2023-07-16T03:38:40;100566.28;;;19.95;100.00
12172;BME280;6149;52.418;13.668;2023-07-16T03:41:07;100572.63;;;19.94;100.00
12172;BME280;6149;52.418;13.668;2023-07-16T03:43:33;100559.34;;;19.92;100.00
12172;BME280;6149;52.418;13.668;2023-07-16T03:46:01;100570.09;;;19.92;100.00
12172;BME280;6149;52.418;13.668;2023-07-16T03:48:28;100585.22;;;19.93;100.00
12172;BME280;6149;52.418;13.668;2023-07-16T03:50:54;100580.81;;;19.92;100.00
12172;BME280;6149;52.418;13.668;2023-07-16T03:53:21;100560.19;;;19.93;100.00
12172;BME280;6149;52.418;13.668;2023-07-16T03:55:48;100527.84;;;20.04;100.00
12172;BME280;6149;52.418;13.668;2023-07-16T03:58:14;100541.41;;;20.02;100.00
12172;BME280;6149;52.418;13.668;2023-07-16T04:00:41;100552.16;;;19.93;100.00
12172;BME280;6149;52.418;13.668;2023-07-16T04:03:10;100575.75;;;19.89;100.00
12172;BME280;6149;52.418;13.668;2023-07-16T04:05:37;100569.81;;;19.86;100.00
12172;BME280;6149;52.418;13.668;2023-07-16T04:08:03;100582.50;;;19.84;100.00
12172;BME280;6149;52.418;13.668;2023-07-16T04:10:30;100590.44;;;19.85;100.00
12172;BME280;6149;52.418;13.668;2023-07-16T04:12:56;100594.81;;;19.86;100.00
12172;BME280;6149;52.418;13.668;2023-07-16T04:15:23;100597.34;;;19.88;100.00
12172;BME280;6149;52.418;13.668;2023-07-16T04:17:50;100585.63;;;19.89;100.00
12172;BME280;6149;52.418;13.668;2023-07-16T04:20:18;100594.38;;;19.91;100.00
12172;BME280;6149;52.418;13.668;2023-07-16T04:22:44;100617.41;;;19.93;100.00
12172;BME280;6149;52.418;13.668;2023-07-16T04:25:11;100623.34;;;19.97;100.00
12172;BME280;6149;52.418;13.668;2023-07-16T04:27:39;100631.13;;;20.00;100.00
12172;BME280;6149;52.418;13.668;2023-07-16T04:30:08;100627.44;;;20.01;100.00
12172;BME280;6149;52.418;13.668;2023-07-16T04:32:35;100611.34;;;20.01;100.00
12172;BME280;6149;52.418;13.668;2023-07-16T04:35:02;100614.88;;;20.01;100.00
12172;BME280;6149;52.418;13.668;2023-07-16T04:37:30;100622.78;;;20.03;100.00
12172;BME280;6149;52.418;13.668;2023-07-16T04:39:57;100621.81;;;20.04;100.00
12172;BME280;6149;52.418;13.668;2023-07-16T04:42:23;100632.38;;;20.06;100.00
12172;BME280;6149;52.418;13.668;2023-07-16T04:44:50;100638.31;;;20.09;100.00
12172;BME280;6149;52.418;13.668;2023-07-16T04:47:16;100640.00;;;20.10;100.00
12172;BME280;6149;52.418;13.668;2023-07-16T04:49:43;100633.22;;;20.25;100.00
12172;BME280;6149;52.418;13.668;2023-07-16T04:52:09;100633.78;;;20.19;100.00
12172;BME280;6149;52.418;13.668;2023-07-16T04:54:37;100644.53;;;20.19;100.00
12172;BME280;6149;52.418;13.668;2023-07-16T04:57:06;100654.56;;;20.17;100.00
12172;BME280;6149;52.418;13.668;2023-07-16T04:59:33;100649.47;;;20.14;100.00
12172;BME280;6149;52.418;13.668;2023-07-16T05:02:02;100659.66;;;20.11;100.00
12172;BME280;6149;52.418;13.668;2023-07-16T05:04:30;100658.22;;;20.07;100.00
12172;BME280;6149;52.418;13.668;2023-07-16T05:06:57;100643.28;;;20.04;100.00
12172;BME280;6149;52.418;13.668;2023-07-16T05:09:23;100638.75;;;20.05;100.00
12172;BME280;6149;52.418;13.668;2023-07-16T05:11:51;100661.06;;;20.05;100.00
12172;BME280;6149;52.418;13.668;2023-07-16T05:14:18;100675.19;;;20.07;100.00
12172;BME280;6149;52.418;13.668;2023-07-16T05:16:45;100684.78;;;20.10;100.00
12172;BME280;6149;52.418;13.668;2023-07-16T05:19:11;100680.00;;;20.13;100.00
12172;BME280;6149;52.418;13.668;2023-07-16T05:21:38;100685.94;;;20.17;100.00
12172;BME280;6149;52.418;13.668;2023-07-16T05:24:05;100692.16;;;20.17;100.00
12172;BME280;6149;52.418;13.668;2023-07-16T05:26:31;100698.22;;;20.19;100.00
12172;BME280;6149;52.418;13.668;2023-07-16T05:29:00;100688.78;;;20.25;100.00
12172;BME280;6149;52.418;13.668;2023-07-16T05:31:27;100697.13;;;20.31;100.00
12172;BME280;6149;52.418;13.668;2023-07-16T05:33:53;100686.78;;;20.36;100.00
12172;BME280;6149;52.418;13.668;2023-07-16T05:36:20;100685.38;;;20.52;100.00
12172;BME280;6149;52.418;13.668;2023-07-16T05:38:47;100695.84;;;20.45;100.00
12172;BME280;6149;52.418;13.668;2023-07-16T05:41:13;100701.66;;;20.50;100.00
12172;BME280;6149;52.418;13.668;2023-07-16T05:43:40;100697.53;;;20.56;100.00
12172;BME280;6149;52.418;13.668;2023-07-16T05:46:08;100700.22;;;20.65;100.00
12172;BME280;6149;52.418;13.668;2023-07-16T05:48:35;100695.41;;;20.79;100.00
12172;BME280;6149;52.418;13.668;2023-07-16T05:51:01;100691.06;;;21.05;100.00
12172;BME280;6149;52.418;13.668;2023-07-16T05:53:28;100695.94;;;21.19;100.00
12172;BME280;6149;52.418;13.668;2023-07-16T05:55:55;100699.38;;;21.21;100.00
12172;BME280;6149;52.418;13.668;2023-07-16T05:58:21;100698.50;;;21.30;100.00
12172;BME280;6149;52.418;13.668;2023-07-16T06:00:48;100697.31;;;21.43;100.00
12172;BME280;6149;52.418;13.668;2023-07-16T06:03:16;100704.81;;;21.66;100.00
12172;BME280;6149;52.418;13.668;2023-07-16T06:05:44;100698.03;;;21.90;100.00
12172;BME280;6149;52.418;13.668;2023-07-16T06:08:10;100704.06;;;22.19;100.00
12172;BME280;6149;52.418;13.668;2023-07-16T06:10:39;100704.91;;;22.38;100.00
12172;BME280;6149;52.418;13.668;2023-07-16T06:13:13;100706.59;;;22.39;100.00
12172;BME280;6149;52.418;13.668;2023-07-16T06:15:39;100708.00;;;22.25;100.00
12172;BME280;6149;52.418;13.668;2023-07-16T06:18:06;100710.91;;;22.31;100.00
12172;BME280;6149;52.418;13.668;2023-07-16T06:20:36;100699.97;;;22.51;100.00
12172;BME280;6149;52.418;13.668;2023-07-16T06:23:03;100708.53;;;22.72;100.00
12172;BME280;6149;52.418;13.668;2023-07-16T06:25:31;100708.38;;;22.91;100.00
12172;BME280;6149;52.418;13.668;2023-07-16T06:27:57;100713.34;;;23.04;100.00
12172;BME280;6149;52.418;13.668;2023-07-16T06:30:25;100718.53;;;23.23;100.00
12172;BME280;6149;52.418;13.668;2023-07-16T06:32:52;100708.63;;;23.40;100.00
12172;BME280;6149;52.418;13.668;2023-07-16T06:35:18;100713.81;;;23.59;100.00
12172;BME280;6149;52.418;13.668;2023-07-16T06:37:47;100719.94;;;23.70;100.00
12172;BME280;6149;52.418;13.668;2023-07-16T06:40:17;100721.69;;;23.87;100.00
12172;BME280;6149;52.418;13.668;2023-07-16T06:42:44;100732.88;;;24.00;100.00
12172;BME280;6149;52.418;13.668;2023-07-16T06:45:14;100737.63;;;24.22;100.00
12172;BME280;6149;52.418;13.668;2023-07-16T06:47:40;100739.56;;;24.38;100.00
12172;BME280;6149;52.418;13.668;2023-07-16T06:50:09;100741.75;;;24.35;98.41
12172;BME280;6149;52.418;13.668;2023-07-16T06:52:37;100744.44;;;24.51;99.36
12172;BME280;6149;52.418;13.668;2023-07-16T06:55:06;100751.03;;;24.56;98.71
12172;BME280;6149;52.418;13.668;2023-07-16T06:57:36;100750.88;;;24.66;97.18
12172;BME280;6149;52.418;13.668;2023-07-16T07:00:03;100743.63;;;24.75;94.33
12172;BME280;6149;52.418;13.668;2023-07-16T07:02:30;100739.22;;;24.74;95.25
12172;BME280;6149;52.418;13.668;2023-07-16T07:04:57;100753.72;;;24.89;93.82
12172;BME280;6149;52.418;13.668;2023-07-16T07:07:23;100749.31;;;24.88;92.13
12172;BME280;6149;52.418;13.668;2023-07-16T07:09:50;100746.66;;;24.80;91.68
12172;BME280;6149;52.418;13.668;2023-07-16T07:12:19;100754.44;;;24.75;92.26
12172;BME280;6149;52.418;13.668;2023-07-16T07:14:46;100747.50;;;24.80;93.47
12172;BME280;6149;52.418;13.668;2023-07-16T07:17:13;100761.38;;;24.85;91.38
12172;BME280;6149;52.418;13.668;2023-07-16T07:19:41;100771.47;;;24.91;91.69
12172;BME280;6149;52.418;13.668;2023-07-16T07:22:09;100766.25;;;24.90;90.43
12172;BME280;6149;52.418;13.668;2023-07-16T07:24:37;100762.03;;;24.95;89.92
12172;BME280;6149;52.418;13.668;2023-07-16T07:27:04;100767.63;;;25.02;90.34
12172;BME280;6149;52.418;13.668;2023-07-16T07:29:32;100773.03;;;25.02;89.68
12172;BME280;6149;52.418;13.668;2023-07-16T07:31:59;100776.94;;;24.99;91.26
12172;BME280;6149;52.418;13.668;2023-07-16T07:34:25;100781.66;;;25.14;88.27
12172;BME280;6149;52.418;13.668;2023-07-16T07:36:52;100775.22;;;25.23;88.98
12172;BME280;6149;52.418;13.668;2023-07-16T07:39:19;100781.78;;;25.28;87.46
12172;BME280;6149;52.418;13.668;2023-07-16T07:41:45;100784.66;;;25.27;85.22
12172;BME280;6149;52.418;13.668;2023-07-16T07:44:12;100786.56;;;25.10;88.03
12172;BME280;6149;52.418;13.668;2023-07-16T07:46:40;100792.66;;;25.12;85.43
12172;BME280;6149;52.418;13.668;2023-07-16T07:49:06;100790.13;;;25.11;87.26
12172;BME280;6149;52.418;13.668;2023-07-16T07:51:33;100789.59;;;25.15;87.36
12172;BME280;6149;52.418;13.668;2023-07-16T07:53:59;100790.41;;;25.32;87.74
12172;BME280;6149;52.418;13.668;2023-07-16T07:56:26;100784.28;;;25.46;87.62
12172;BME280;6149;52.418;13.668;2023-07-16T07:58:53;100784.31;;;25.38;84.66
12172;BME280;6149;52.418;13.668;2023-07-16T08:01:19;100795.31;;;25.28;82.82
12172;BME280;6149;52.418;13.668;2023-07-16T08:03:47;100792.31;;;25.15;85.03
12172;BME280;6149;52.418;13.668;2023-07-16T08:06:14;100796.88;;;25.15;84.66
12172;BME280;6149;52.418;13.668;2023-07-16T08:08:40;100800.59;;;25.22;86.15
12172;BME280;6149;52.418;13.668;2023-07-16T08:11:07;100799.00;;;25.52;84.53
12172;BME280;6149;52.418;13.668;2023-07-16T08:13:33;100783.25;;;25.55;82.49
12172;BME280;6149;52.418;13.668;2023-07-16T08:16:00;100785.59;;;25.67;82.17
12172;BME280;6149;52.418;13.668;2023-07-16T08:18:26;100782.47;;;25.86;83.24
12172;BME280;6149;52.418;13.668;2023-07-16T08:20:54;100790.69;;;26.01;79.89
12172;BME280;6149;52.418;13.668;2023-07-16T08:23:21;100798.28;;;26.05;81.49
12172;BME280;6149;52.418;13.668;2023-07-16T08:25:47;100802.38;;;26.01;81.51
12172;BME280;6149;52.418;13.668;2023-07-16T08:28:15;100802.25;;;26.34;81.01
12172;BME280;6149;52.418;13.668;2023-07-16T08:30:42;100805.44;;;26.37;78.07
12172;BME280;6149;52.418;13.668;2023-07-16T08:33:08;100796.84;;;26.34;76.44
12172;BME280;6149;52.418;13.668;2023-07-16T08:35:37;100807.13;;;26.38;76.54
12172;BME280;6149;52.418;13.668;2023-07-16T08:38:05;100809.06;;;26.21;74.12
12172;BME280;6149;52.418;13.668;2023-07-16T08:40:34;100800.44;;;26.18;74.32
12172;BME280;6149;52.418;13.668;2023-07-16T08:43:03;100815.22;;;26.07;74.99
12172;BME280;6149;52.418;13.668;2023-07-16T08:45:35;100819.75;;;26.23;74.25
12172;BME280;6149;52.418;13.668;2023-07-16T08:48:06;100808.72;;;26.55;78.33
12172;BME280;6149;52.418;13.668;2023-07-16T08:50:34;100813.34;;;26.92;74.51
12172;BME280;6149;52.418;13.668;2023-07-16T08:53:05;100823.88;;;26.73;72.43
12172;BME280;6149;52.418;13.668;2023-07-16T08:55:32;100826.00;;;26.23;70.41
12172;BME280;6149;52.418;13.668;2023-07-16T08:58:01;100838.88;;;25.90;72.09
12172;BME280;6149;52.418;13.668;2023-07-16T09:00:28;100845.91;;;25.52;64.98
12172;BME280;6149;52.418;13.668;2023-07-16T09:02:56;100846.41;;;25.40;66.03
12172;BME280;6149;52.418;13.668;2023-07-16T09:05:23;100847.97;;;25.18;63.86
12172;BME280;6149;52.418;13.668;2023-07-16T09:07:49;100847.47;;;25.06;65.13
12172;BME280;6149;52.418;13.668;2023-07-16T09:10:17;100861.94;;;24.89;64.51
12172;BME280;6149;52.418;13.668;2023-07-16T09:12:44;100851.69;;;25.17;69.21
12172;BME280;6149;52.418;13.668;2023-07-16T09:15:13;100855.19;;;25.58;67.63
12172;BME280;6149;52.418;13.668;2023-07-16T09:17:46;100845.31;;;25.89;62.58
12172;BME280;6149;52.418;13.668;2023-07-16T09:20:16;100850.59;;;26.22;64.75
12172;BME280;6149;52.418;13.668;2023-07-16T09:22:46;100851.09;;;26.56;63.77
12172;BME280;6149;52.418;13.668;2023-07-16T09:25:17;100852.38;;;26.91;62.51
12172;BME280;6149;52.418;13.668;2023-07-16T09:27:48;100847.31;;;27.11;57.96
12172;BME280;6149;52.418;13.668;2023-07-16T09:30:15;100853.66;;;27.41;56.01
12172;BME280;6149;52.418;13.668;2023-07-16T09:32:42;100849.81;;;27.50;58.81
12172;BME280;6149;52.418;13.668;2023-07-16T09:35:09;100851.78;;;27.56;58.83
12172;BME280;6149;52.418;13.668;2023-07-16T09:37:37;100849.38;;;27.91;57.46
12172;BME280;6149;52.418;13.668;2023-07-16T09:40:06;100846.59;;;27.84;56.42
12172;BME280;6149;52.418;13.668;2023-07-16T09:42:37;100842.25;;;28.19;55.65
12172;BME280;6149;52.418;13.668;2023-07-16T09:45:06;100843.84;;;28.28;53.57
12172;BME280;6149;52.418;13.668;2023-07-16T09:47:33;100852.75;;;28.37;54.67
12172;BME280;6149;52.418;13.668;2023-07-16T09:50:00;100846.53;;;28.65;55.09
12172;BME280;6149;52.418;13.668;2023-07-16T09:52:27;100851.22;;;28.85;56.17
12172;BME280;6149;52.418;13.668;2023-07-16T09:54:55;100860.44;;;28.70;52.83
12172;BME280;6149;52.418;13.668;2023-07-16T09:57:25;100864.53;;;29.02;54.19
12172;BME280;6149;52.418;13.668;2023-07-16T09:59:55;100864.28;;;29.18;54.12
12172;BME280;6149;52.418;13.668;2023-07-16T10:02:23;100859.38;;;29.35;52.74
12172;BME280;6149;52.418;13.668;2023-07-16T10:04:49;100861.84;;;29.51;51.78
12172;BME280;6149;52.418;13.668;2023-07-16T10:07:21;100851.88;;;29.15;52.40
12172;BME280;6149;52.418;13.668;2023-07-16T10:09:54;100854.44;;;28.59;52.90
12172;BME280;6149;52.418;13.668;2023-07-16T10:12:23;100865.91;;;28.19;52.71
12172;BME280;6149;52.418;13.668;2023-07-16T10:14:51;100875.84;;;27.82;54.14
12172;BME280;6149;52.418;13.668;2023-07-16T10:17:23;100868.28;;;27.55;55.70
12172;BME280;6149;52.418;13.668;2023-07-16T10:19:54;100867.06;;;27.57;57.27
12172;BME280;6149;52.418;13.668;2023-07-16T10:22:31;100860.31;;;27.53;57.44
12172;BME280;6149;52.418;13.668;2023-07-16T10:24:59;100860.28;;;27.24;56.41
12172;BME280;6149;52.418;13.668;2023-07-16T10:27:28;100863.47;;;27.27;57.96
12172;BME280;6149;52.418;13.668;2023-07-16T10:29:55;100860.50;;;27.14;55.59
12172;BME280;6149;52.418;13.668;2023-07-16T10:32:26;100870.81;;;27.04;57.98
12172;BME280;6149;52.418;13.668;2023-07-16T10:34:53;100876.13;;;26.89;58.17
12172;BME280;6149;52.418;13.668;2023-07-16T10:37:20;100879.03;;;26.88;58.74
12172;BME280;6149;52.418;13.668;2023-07-16T10:39:48;100870.53;;;26.91;59.06
12172;BME280;6149;52.418;13.668;2023-07-16T10:42:16;100877.34;;;26.87;59.28
12172;BME280;6149;52.418;13.668;2023-07-16T10:44:42;100875.88;;;26.76;59.72
12172;BME280;6149;52.418;13.668;2023-07-16T10:47:10;100885.47;;;26.64;59.39
12172;BME280;6149;52.418;13.668;2023-07-16T10:49:46;100881.22;;;26.70;58.41
12172;BME280;6149;52.418;13.668;2023-07-16T10:52:13;100889.59;;;26.52;59.21
12172;BME280;6149;52.418;13.668;2023-07-16T10:54:40;100884.47;;;26.34;58.58
12172;BME280;6149;52.418;13.668;2023-07-16T10:57:07;100879.41;;;26.15;60.62
12172;BME280;6149;52.418;13.668;2023-07-16T10:59:33;100882.31;;;26.13;59.02
12172;BME280;6149;52.418;13.668;2023-07-16T11:02:03;100878.03;;;26.19;61.95
12172;BME280;6149;52.418;13.668;2023-07-16T11:04:33;100878.53;;;26.22;62.15
12172;BME280;6149;52.418;13.668;2023-07-16T11:07:05;100872.94;;;26.32;61.05
12172;BME280;6149;52.418;13.668;2023-07-16T11:09:33;100887.84;;;26.36;58.50
12172;BME280;6149;52.418;13.668;2023-07-16T11:12:10;100876.63;;;26.39;59.71
12172;BME280;6149;52.418;13.668;2023-07-16T11:14:38;100881.94;;;26.33;61.94
12172;BME280;6149;52.418;13.668;2023-07-16T11:17:08;100880.38;;;26.30;61.59
12172;BME280;6149;52.418;13.668;2023-07-16T11:19:36;100883.13;;;26.22;59.24
12172;BME280;6149;52.418;13.668;2023-07-16T11:22:06;100880.41;;;26.22;61.85
12172;BME280;6149;52.418;13.668;2023-07-16T11:24:37;100878.41;;;26.16;60.82
12172;BME280;6149;52.418;13.668;2023-07-16T11:27:06;100873.66;;;26.18;59.21
12172;BME280;6149;52.418;13.668;2023-07-16T11:29:38;100879.38;;;26.31;63.17
12172;BME280;6149;52.418;13.668;2023-07-16T11:32:07;100877.63;;;26.38;59.77
12172;BME280;6149;52.418;13.668;2023-07-16T11:34:34;100881.38;;;26.37;60.00
12172;BME280;6149;52.418;13.668;2023-07-16T11:37:11;100867.16;;;26.35;58.22
12172;BME280;6149;52.418;13.668;2023-07-16T11:39:38;100867.44;;;26.40;55.06
12172;BME280;6149;52.418;13.668;2023-07-16T11:42:05;100874.28;;;26.36;57.11
12172;BME280;6149;52.418;13.668;2023-07-16T11:44:38;100874.56;;;26.41;54.92
12172;BME280;6149;52.418;13.668;2023-07-16T11:47:05;100869.28;;;26.48;54.36
12172;BME280;6149;52.418;13.668;2023-07-16T11:49:31;100875.34;;;26.58;57.54
12172;BME280;6149;52.418;13.668;2023-07-16T11:51:58;100875.19;;;26.51;55.64
12172;BME280;6149;52.418;13.668;2023-07-16T11:54:26;100865.59;;;26.41;54.61
12172;BME280;6149;52.418;13.668;2023-07-16T11:56:53;100871.69;;;26.43;54.44
12172;BME280;6149;52.418;13.668;2023-07-16T11:59:19;100864.34;;;26.51;56.58
12172;BME280;6149;52.418;13.668;2023-07-16T12:01:48;100876.31;;;26.65;56.34
12172;BME280;6149;52.418;13.668;2023-07-16T12:04:15;100867.69;;;26.61;53.63
12172;BME280;6149;52.418;13.668;2023-07-16T12:06:43;100871.94;;;26.56;54.08
12172;BME280;6149;52.418;13.668;2023-07-16T12:09:09;100879.09;;;26.49;52.53
12172;BME280;6149;52.418;13.668;2023-07-16T12:11:38;100888.91;;;26.58;55.75
12172;BME280;6149;52.418;13.668;2023-07-16T12:14:05;100875.81;;;26.61;49.01
12172;BME280;6149;52.418;13.668;2023-07-16T12:16:32;100871.47;;;26.75;49.90
12172;BME280;6149;52.418;13.668;2023-07-16T12:18:58;100878.38;;;26.86;49.44
12172;BME280;6149;52.418;13.668;2023-07-16T12:21:25;100881.56;;;26.89;49.01
12172;BME280;6149;52.418;13.668;2023-07-16T12:23:51;100884.47;;;26.88;48.52
12172;BME280;6149;52.418;13.668;2023-07-16T12:26:18;100880.88;;;26.95;49.04
12172;BME280;6149;52.418;13.668;2023-07-16T12:28:46;100877.75;;;27.07;47.22
12172;BME280;6149;52.418;13.668;2023-07-16T12:31:13;100887.75;;;27.06;46.51
12172;BME280;6149;52.418;13.668;2023-07-16T12:33:41;100883.34;;;26.74;46.65
12172;BME280;6149;52.418;13.668;2023-07-16T12:36:07;100886.06;;;26.74;48.26
12172;BME280;6149;52.418;13.668;2023-07-16T12:38:34;100889.34;;;26.70;46.97
12172;BME280;6149;52.418;13.668;2023-07-16T12:41:00;100887.13;;;26.73;46.94
12172;BME280;6149;52.418;13.668;2023-07-16T12:43:27;100892.97;;;26.85;47.63
12172;BME280;6149;52.418;13.668;2023-07-16T12:45:55;100896.16;;;26.88;46.16
12172;BME280;6149;52.418;13.668;2023-07-16T12:48:21;100893.81;;;26.85;46.85